sensor_id;sensor_type;location;lat;lon;timestamp;noise_LAeq;noise_LA_min;noise_LA_max;noise_LA01;noise_LA95
76767;Laerm;65707;52.362;6.588;2023-02-20T00:01:16;45.17;36.81;63.55;;
76767;Laerm;65707;52.362;6.588;2023-02-20T00:03:45;57.34;38.97;84.53;;
76767;Laerm;65707;52.362;6.588;2023-02-20T00:06:12;43.42;31.80;66.79;;
76767;Laerm;65707;52.362;6.588;2023-02-20T00:08:39;38.94;31.83;58.43;;
76767;Laerm;65707;52.362;6.588;2023-02-20T00:11:06;41.90;34.29;64.79;;
76767;Laerm;65707;52.362;6.588;2023-02-20T00:13:33;41.74;33.40;61.72;;
76767;Laerm;65707;52.362;6.588;2023-02-20T00:16:00;39.85;32.92;62.39;;
76767;Laerm;65707;52.362;6.588;2023-02-20T00:18:27;39.19;32.53;56.96;;
76767;Laerm;65707;52.362;6.588;2023-02-20T00:20:55;41.87;33.39;66.52;;
76767;Laerm;65707;52.362;6.588;2023-02-20T00:23:22;45.39;32.56;69.45;;
76767;Laerm;65707;52.362;6.588;2023-02-20T00:25:49;37.27;32.10;51.77;;
76767;Laerm;65707;52.362;6.588;2023-02-20T00:28:15;42.89;32.92;66.97;;
76767;Laerm;65707;52.362;6.588;2023-02-20T00:30:42;49.15;32.17;71.73;;
76767;Laerm;65707;52.362;6.588;2023-02-20T00:33:09;44.33;34.22;69.57;;
76767;Laerm;65707;52.362;6.588;2023-02-20T00:35:36;50.04;41.50;67.92;;
76767;Laerm;65707;52.362;6.588;2023-02-20T00:38:07;48.18;42.74;61.09;;
76767;Laerm;65707;52.362;6.588;2023-02-20T00:40:34;46.67;43.71;52.70;;
76767;Laerm;65707;52.362;6.588;2023-02-20T00:43:01;49.78;42.78;62.81;;
76767;Laerm;65707;52.362;6.588;2023-02-20T00:45:28;51.45;43.71;74.41;;
76767;Laerm;65707;52.362;6.588;2023-02-20T00:47:54;62.75;44.76;73.71;;
76767;Laerm;65707;52.362;6.588;2023-02-20T00:50:21;57.52;40.55;79.76;;
76767;Laerm;65707;52.362;6.588;2023-02-20T00:52:48;42.70;36.02;64.25;;
76767;Laerm;65707;52.362;6.588;2023-02-20T00:55:16;44.51;35.17;63.72;;
76767;Laerm;65707;52.362;6.588;2023-02-20T00:57:43;58.27;34.23;72.87;;
76767;Laerm;65707;52.362;6.588;2023-02-20T01:00:19;62.24;38.47;72.30;;
76767;Laerm;65707;52.362;6.588;2023-02-20T01:02:47;60.55;48.37;72.10;;
76767;Laerm;65707;52.362;6.588;2023-02-20T01:05:14;61.49;48.80;69.82;;
76767;Laerm;65707;52.362;6.588;2023-02-20T01:07:41;57.56;44.48;67.59;;
76767;Laerm;65707;52.362;6.588;2023-02-20T01:10:10;52.23;43.42;72.46;;
76767;Laerm;65707;52.362;6.588;2023-02-20T01:12:38;45.07;36.06;58.26;;
76767;Laerm;65707;52.362;6.588;2023-02-20T01:15:07;48.94;34.84;60.83;;
76767;Laerm;65707;52.362;6.588;2023-02-20T01:17:34;41.71;36.25;64.32;;
76767;Laerm;65707;52.362;6.588;2023-02-20T01:20:01;46.98;38.05;65.40;;
76767;Laerm;65707;52.362;6.588;2023-02-20T01:22:28;52.73;43.55;62.24;;
76767;Laerm;65707;52.362;6.588;2023-02-20T01:24:55;48.13;43.06;66.71;;
76767;Laerm;65707;52.362;6.588;2023-02-20T01:27:22;67.88;44.85;78.31;;
76767;Laerm;65707;52.362;6.588;2023-02-20T01:29:50;68.33;43.26;79.29;;
76767;Laerm;65707;52.362;6.588;2023-02-20T01:32:17;49.34;43.55;61.66;;
76767;Laerm;65707;52.362;6.588;2023-02-20T01:34:44;70.85;47.90;91.81;;
76767;Laerm;65707;52.362;6.588;2023-02-20T01:37:13;64.50;43.86;74.57;;
76767;Laerm;65707;52.362;6.588;2023-02-20T01:39:41;60.39;44.04;74.79;;
76767;Laerm;65707;52.362;6.588;2023-02-20T01:42:15;67.97;44.42;78.40;;
76767;Laerm;65707;52.362;6.588;2023-02-20T01:44:44;55.58;42.79;78.82;;
76767;Laerm;65707;52.362;6.588;2023-02-20T01:47:16;57.38;40.02;70.90;;
76767;Laerm;65707;52.362;6.588;2023-02-20T01:49:47;60.48;40.36;72.80;;
76767;Laerm;65707;52.362;6.588;2023-02-20T01:52:20;51.60;40.39;74.69;;
76767;Laerm;65707;52.362;6.588;2023-02-20T01:54:56;54.85;38.39;81.09;;
76767;Laerm;65707;52.362;6.588;2023-02-20T01:57:28;50.07;38.62;77.54;;
76767;Laerm;65707;52.362;6.588;2023-02-20T02:00:04;45.29;38.64;69.49;;
76767;Laerm;65707;52.362;6.588;2023-02-20T02:02:37;45.96;38.19;74.01;;
76767;Laerm;65707;52.362;6.588;2023-02-20T02:05:09;46.75;37.31;67.60;;
76767;Laerm;65707;52.362;6.588;2023-02-20T02:07:37;48.31;37.91;69.20;;
76767;Laerm;65707;52.362;6.588;2023-02-20T02:10:08;52.10;38.34;73.05;;
76767;Laerm;65707;52.362;6.588;2023-02-20T02:12:39;55.17;45.50;70.21;;
76767;Laerm;65707;52.362;6.588;2023-02-20T02:15:13;53.68;46.18;65.68;;
76767;Laerm;65707;52.362;6.588;2023-02-20T02:24:43;52.37;45.23;80.44;;
76767;Laerm;65707;52.362;6.588;2023-02-20T02:28:02;49.36;45.55;63.77;;
76767;Laerm;65707;52.362;6.588;2023-02-20T02:37:39;62.39;45.57;76.49;;
76767;Laerm;65707;52.362;6.588;2023-02-20T02:40:19;48.42;44.04;59.05;;
76767;Laerm;65707;52.362;6.588;2023-02-20T02:42:58;48.26;45.05;62.22;;
76767;Laerm;65707;52.362;6.588;2023-02-20T02:45:34;52.72;45.02;78.03;;
76767;Laerm;65707;52.362;6.588;2023-02-20T02:48:11;60.15;45.02;81.57;;
76767;Laerm;65707;52.362;6.588;2023-02-20T02:50:44;63.44;57.59;75.54;;
76767;Laerm;65707;52.362;6.588;2023-02-20T02:53:14;64.11;56.80;73.35;;
76767;Laerm;65707;52.362;6.588;2023-02-20T02:55:41;62.04;42.90;68.48;;
76767;Laerm;65707;52.362;6.588;2023-02-20T02:58:10;65.21;41.24;77.73;;
76767;Laerm;65707;52.362;6.588;2023-02-20T03:00:42;62.22;39.71;76.90;;
76767;Laerm;65707;52.362;6.588;2023-02-20T03:03:18;54.57;39.11;68.31;;
76767;Laerm;65707;52.362;6.588;2023-02-20T03:05:53;48.41;36.55;69.53;;
76767;Laerm;65707;52.362;6.588;2023-02-20T03:08:29;43.51;34.92;63.44;;
76767;Laerm;65707;52.362;6.588;2023-02-20T03:11:03;44.18;34.75;66.41;;
76767;Laerm;65707;52.362;6.588;2023-02-20T03:13:38;43.04;33.62;62.28;;
76767;Laerm;65707;52.362;6.588;2023-02-20T03:16:31;45.46;36.31;67.10;;
76767;Laerm;65707;52.362;6.588;2023-02-20T03:19:02;42.77;34.14;64.61;;
76767;Laerm;65707;52.362;6.588;2023-02-20T03:21:33;46.72;34.30;73.86;;
76767;Laerm;65707;52.362;6.588;2023-02-20T03:24:04;49.31;35.66;73.86;;
76767;Laerm;65707;52.362;6.588;2023-02-20T03:26:36;42.08;34.71;64.24;;
76767;Laerm;65707;52.362;6.588;2023-02-20T03:29:10;42.52;36.07;58.61;;
76767;Laerm;65707;52.362;6.588;2023-02-20T03:31:43;44.03;36.25;66.04;;
76767;Laerm;65707;52.362;6.588;2023-02-20T03:34:15;43.27;36.61;59.72;;
76767;Laerm;65707;52.362;6.588;2023-02-20T03:37:08;44.80;34.99;66.21;;
76767;Laerm;65707;52.362;6.588;2023-02-20T03:40:03;44.13;35.57;64.73;;
76767;Laerm;65707;52.362;6.588;2023-02-20T03:42:54;42.18;36.51;61.27;;
76767;Laerm;65707;52.362;6.588;2023-02-20T03:45:42;42.81;36.71;62.52;;
76767;Laerm;65707;52.362;6.588;2023-02-20T03:48:15;45.58;36.24;65.22;;
76767;Laerm;65707;52.362;6.588;2023-02-20T03:50:45;46.45;37.99;65.20;;
76767;Laerm;65707;52.362;6.588;2023-02-20T03:53:12;71.75;37.81;85.27;;
76767;Laerm;65707;52.362;6.588;2023-02-20T03:55:41;46.13;36.52;65.34;;
76767;Laerm;65707;52.362;6.588;2023-02-20T03:58:12;44.51;37.15;60.01;;
76767;Laerm;65707;52.362;6.588;2023-02-20T04:00:45;46.65;36.76;66.65;;
76767;Laerm;65707;52.362;6.588;2023-02-20T04:03:18;43.40;37.63;61.37;;
76767;Laerm;65707;52.362;6.588;2023-02-20T04:05:50;46.53;39.18;65.04;;
76767;Laerm;65707;52.362;6.588;2023-02-20T04:08:22;44.41;38.20;62.79;;
76767;Laerm;65707;52.362;6.588;2023-02-20T04:11:02;59.95;36.87;79.07;;
76767;Laerm;65707;52.362;6.588;2023-02-20T04:13:32;47.46;38.32;67.74;;
76767;Laerm;65707;52.362;6.588;2023-02-20T04:16:01;49.05;38.21;66.00;;
76767;Laerm;65707;52.362;6.588;2023-02-20T04:18:29;49.89;38.44;71.43;;
76767;Laerm;65707;52.362;6.588;2023-02-20T04:20:59;45.56;37.82;59.60;;
76767;Laerm;65707;52.362;6.588;2023-02-20T04:23:35;51.35;38.32;74.84;;
76767;Laerm;65707;52.362;6.588;2023-02-20T04:26:09;48.13;38.69;68.09;;
76767;Laerm;65707;52.362;6.588;2023-02-20T04:28:37;48.73;38.32;68.55;;
76767;Laerm;65707;52.362;6.588;2023-02-20T04:31:04;47.72;39.25;62.45;;
76767;Laerm;65707;52.362;6.588;2023-02-20T04:33:32;49.32;39.00;68.69;;
76767;Laerm;65707;52.362;6.588;2023-02-20T04:36:00;50.63;39.07;70.78;;
76767;Laerm;65707;52.362;6.588;2023-02-20T04:38:27;58.62;41.06;81.68;;
76767;Laerm;65707;52.362;6.588;2023-02-20T04:40:53;64.42;40.14;80.77;;
76767;Laerm;65707;52.362;6.588;2023-02-20T04:43:22;47.46;39.55;66.76;;
76767;Laerm;65707;52.362;6.588;2023-02-20T04:45:49;52.57;40.09;75.71;;
76767;Laerm;65707;52.362;6.588;2023-02-20T04:48:16;47.67;38.27;69.89;;
76767;Laerm;65707;52.362;6.588;2023-02-20T04:50:42;45.73;38.55;63.38;;
76767;Laerm;65707;52.362;6.588;2023-02-20T04:53:09;54.22;39.78;73.93;;
76767;Laerm;65707;52.362;6.588;2023-02-20T04:55:38;48.74;40.06;72.85;;
76767;Laerm;65707;52.362;6.588;2023-02-20T04:58:05;50.03;40.03;71.54;;
76767;Laerm;65707;52.362;6.588;2023-02-20T05:00:33;57.53;40.95;76.17;;
76767;Laerm;65707;52.362;6.588;2023-02-20T05:03:00;49.76;39.05;66.02;;
76767;Laerm;65707;52.362;6.588;2023-02-20T05:05:29;48.38;39.66;65.02;;
76767;Laerm;65707;52.362;6.588;2023-02-20T05:07:58;50.98;40.41;73.49;;
76767;Laerm;65707;52.362;6.588;2023-02-20T05:10:31;65.45;41.32;81.08;;
76767;Laerm;65707;52.362;6.588;2023-02-20T05:12:58;55.39;40.23;78.12;;
76767;Laerm;65707;52.362;6.588;2023-02-20T05:15:27;60.15;40.59;80.10;;
76767;Laerm;65707;52.362;6.588;2023-02-20T05:17:56;49.44;42.06;64.73;;
76767;Laerm;65707;52.362;6.588;2023-02-20T05:20:23;52.92;41.34;71.81;;
76767;Laerm;65707;52.362;6.588;2023-02-20T05:23:10;49.24;41.60;63.93;;
76767;Laerm;65707;52.362;6.588;2023-02-20T05:25:39;49.42;40.65;64.11;;
76767;Laerm;65707;52.362;6.588;2023-02-20T05:28:06;49.68;41.63;65.61;;
76767;Laerm;65707;52.362;6.588;2023-02-20T05:30:32;57.04;42.29;73.82;;
76767;Laerm;65707;52.362;6.588;2023-02-20T05:33:00;49.29;42.27;68.30;;
76767;Laerm;65707;52.362;6.588;2023-02-20T05:35:27;48.42;42.28;61.40;;
76767;Laerm;65707;52.362;6.588;2023-02-20T05:37:54;57.40;42.39;74.90;;
76767;Laerm;65707;52.362;6.588;2023-02-20T05:40:21;49.79;42.37;67.45;;
76767;Laerm;65707;52.362;6.588;2023-02-20T05:42:47;64.69;42.22;80.72;;
76767;Laerm;65707;52.362;6.588;2023-02-20T05:45:14;52.67;42.81;80.44;;
76767;Laerm;65707;52.362;6.588;2023-02-20T05:47:41;48.53;42.36;66.00;;
76767;Laerm;65707;52.362;6.588;2023-02-20T05:50:09;47.91;42.32;65.99;;
76767;Laerm;65707;52.362;6.588;2023-02-20T05:52:36;54.89;43.17;77.11;;
76767;Laerm;65707;52.362;6.588;2023-02-20T05:55:04;50.10;42.14;73.80;;
76767;Laerm;65707;52.362;6.588;2023-02-20T05:57:31;49.63;40.89;71.13;;
76767;Laerm;65707;52.362;6.588;2023-02-20T05:59:57;60.30;43.37;80.70;;
76767;Laerm;65707;52.362;6.588;2023-02-20T06:02:24;51.16;43.11;75.49;;
76767;Laerm;65707;52.362;6.588;2023-02-20T06:04:51;55.82;42.62;78.38;;
76767;Laerm;65707;52.362;6.588;2023-02-20T06:07:19;56.38;43.68;73.73;;
76767;Laerm;65707;52.362;6.588;2023-02-20T06:09:46;58.92;43.82;74.41;;
76767;Laerm;65707;52.362;6.588;2023-02-20T06:12:14;66.40;44.16;81.10;;
76767;Laerm;65707;52.362;6.588;2023-02-20T06:14:40;49.87;42.69;63.71;;
76767;Laerm;65707;52.362;6.588;2023-02-20T06:17:07;50.03;43.05;67.38;;
76767;Laerm;65707;52.362;6.588;2023-02-20T06:19:34;53.58;42.90;74.15;;
76767;Laerm;65707;52.362;6.588;2023-02-20T06:22:01;59.70;44.25;77.11;;
76767;Laerm;65707;52.362;6.588;2023-02-20T06:24:30;56.20;43.44;74.59;;
76767;Laerm;65707;52.362;6.588;2023-02-20T06:26:57;48.83;43.14;56.37;;
76767;Laerm;65707;52.362;6.588;2023-02-20T06:29:23;55.31;44.12;70.52;;
76767;Laerm;65707;52.362;6.588;2023-02-20T06:31:50;56.68;43.35;71.13;;
76767;Laerm;65707;52.362;6.588;2023-02-20T06:34:17;52.36;43.52;74.76;;
76767;Laerm;65707;52.362;6.588;2023-02-20T06:36:44;49.25;43.85;62.95;;
76767;Laerm;65707;52.362;6.588;2023-02-20T06:39:13;49.03;42.98;63.20;;
76767;Laerm;65707;52.362;6.588;2023-02-20T06:41:42;61.96;43.73;78.80;;
76767;Laerm;65707;52.362;6.588;2023-02-20T06:44:08;50.99;42.25;64.61;;
76767;Laerm;65707;52.362;6.588;2023-02-20T06:46:35;72.23;44.22;90.24;;
76767;Laerm;65707;52.362;6.588;2023-02-20T06:49:02;62.56;42.33;79.98;;
76767;Laerm;65707;52.362;6.588;2023-02-20T06:51:32;49.66;43.74;66.54;;
76767;Laerm;65707;52.362;6.588;2023-02-20T06:54:01;55.95;44.03;73.19;;
76767;Laerm;65707;52.362;6.588;2023-02-20T06:56:31;57.22;44.95;82.88;;
76767;Laerm;65707;52.362;6.588;2023-02-20T06:59:01;50.13;43.04;71.74;;
76767;Laerm;65707;52.362;6.588;2023-02-20T07:01:35;58.50;44.19;75.57;;
76767;Laerm;65707;52.362;6.588;2023-02-20T07:04:04;51.03;43.48;68.14;;
76767;Laerm;65707;52.362;6.588;2023-02-20T07:06:31;55.54;44.11;74.30;;
76767;Laerm;65707;52.362;6.588;2023-02-20T07:08:57;58.66;43.94;73.88;;
76767;Laerm;65707;52.362;6.588;2023-02-20T07:11:24;50.68;44.86;68.12;;
76767;Laerm;65707;52.362;6.588;2023-02-20T07:13:51;49.29;42.60;67.19;;
76767;Laerm;65707;52.362;6.588;2023-02-20T07:16:19;49.17;42.87;68.15;;
76767;Laerm;65707;52.362;6.588;2023-02-20T07:18:46;49.95;44.07;67.15;;
76767;Laerm;65707;52.362;6.588;2023-02-20T07:21:13;52.89;43.11;80.67;;
76767;Laerm;65707;52.362;6.588;2023-02-20T07:23:40;55.19;43.99;74.03;;
76767;Laerm;65707;52.362;6.588;2023-02-20T07:26:17;49.88;44.61;64.15;;
76767;Laerm;65707;52.362;6.588;2023-02-20T07:28:44;50.45;42.86;71.63;;
76767;Laerm;65707;52.362;6.588;2023-02-20T07:31:13;57.74;43.75;77.04;;
76767;Laerm;65707;52.362;6.588;2023-02-20T07:33:41;51.48;41.73;76.70;;
76767;Laerm;65707;52.362;6.588;2023-02-20T07:36:09;49.15;41.30;68.86;;
76767;Laerm;65707;52.362;6.588;2023-02-20T07:38:36;50.02;43.01;72.20;;
76767;Laerm;65707;52.362;6.588;2023-02-20T07:41:03;59.02;44.51;75.66;;
76767;Laerm;65707;52.362;6.588;2023-02-20T07:43:30;61.09;42.72;77.54;;
76767;Laerm;65707;52.362;6.588;2023-02-20T07:45:57;69.64;43.77;82.51;;
76767;Laerm;65707;52.362;6.588;2023-02-20T07:48:23;51.05;44.03;73.13;;
76767;Laerm;65707;52.362;6.588;2023-02-20T07:50:51;50.94;44.42;69.75;;
76767;Laerm;65707;52.362;6.588;2023-02-20T07:53:20;53.20;44.54;71.07;;
76767;Laerm;65707;52.362;6.588;2023-02-20T07:55:47;57.74;44.85;74.51;;
76767;Laerm;65707;52.362;6.588;2023-02-20T07:58:14;63.95;45.45;85.33;;
76767;Laerm;65707;52.362;6.588;2023-02-20T08:00:40;62.43;44.57;80.16;;
76767;Laerm;65707;52.362;6.588;2023-02-20T08:03:07;50.03;43.72;65.99;;
76767;Laerm;65707;52.362;6.588;2023-02-20T08:05:34;49.84;42.32;70.67;;
76767;Laerm;65707;52.362;6.588;2023-02-20T08:08:02;57.80;42.70;85.11;;
76767;Laerm;65707;52.362;6.588;2023-02-20T08:10:29;63.99;43.57;78.79;;
76767;Laerm;65707;52.362;6.588;2023-02-20T08:12:56;51.78;41.96;71.74;;
76767;Laerm;65707;52.362;6.588;2023-02-20T08:15:23;71.61;44.30;86.18;;
76767;Laerm;65707;52.362;6.588;2023-02-20T08:17:49;59.17;44.68;82.06;;
76767;Laerm;65707;52.362;6.588;2023-02-20T08:20:19;64.94;42.78;81.22;;
76767;Laerm;65707;52.362;6.588;2023-02-20T08:22:49;54.39;42.56;75.95;;
76767;Laerm;65707;52.362;6.588;2023-02-20T08:25:18;54.30;43.81;78.93;;
76767;Laerm;65707;52.362;6.588;2023-02-20T08:27:47;52.14;43.18;73.88;;
76767;Laerm;65707;52.362;6.588;2023-02-20T08:30:17;57.51;43.77;75.77;;
76767;Laerm;65707;52.362;6.588;2023-02-20T08:32:51;52.85;43.81;78.90;;
76767;Laerm;65707;52.362;6.588;2023-02-20T08:35:19;63.37;44.46;82.91;;
76767;Laerm;65707;52.362;6.588;2023-02-20T08:37:46;60.78;43.99;86.12;;
76767;Laerm;65707;52.362;6.588;2023-02-20T08:40:13;51.11;41.51;68.95;;
76767;Laerm;65707;52.362;6.588;2023-02-20T08:42:41;61.67;42.58;79.02;;
76767;Laerm;65707;52.362;6.588;2023-02-20T08:45:09;51.47;42.93;72.31;;
76767;Laerm;65707;52.362;6.588;2023-02-20T08:47:36;50.37;42.65;67.32;;
76767;Laerm;65707;52.362;6.588;2023-02-20T08:50:04;67.51;41.97;82.55;;
76767;Laerm;65707;52.362;6.588;2023-02-20T08:52:31;61.33;42.35;79.35;;
76767;Laerm;65707;52.362;6.588;2023-02-20T08:54:59;73.41;45.45;90.12;;
76767;Laerm;65707;52.362;6.588;2023-02-20T08:57:26;68.92;44.03;88.45;;
76767;Laerm;65707;52.362;6.588;2023-02-20T08:59:54;67.98;43.50;84.33;;
76767;Laerm;65707;52.362;6.588;2023-02-20T09:02:24;56.12;42.96;77.88;;
76767;Laerm;65707;52.362;6.588;2023-02-20T09:04:54;50.71;41.45;73.74;;
76767;Laerm;65707;52.362;6.588;2023-02-20T09:07:21;56.36;43.01;74.45;;
76767;Laerm;65707;52.362;6.588;2023-02-20T09:09:48;62.54;43.23;78.53;;
76767;Laerm;65707;52.362;6.588;2023-02-20T09:12:17;52.34;42.20;70.38;;
76767;Laerm;65707;52.362;6.588;2023-02-20T09:14:44;50.63;41.52;70.75;;
76767;Laerm;65707;52.362;6.588;2023-02-20T09:17:13;54.90;42.96;76.02;;
76767;Laerm;65707;52.362;6.588;2023-02-20T09:19:39;62.29;42.63;81.18;;
76767;Laerm;65707;52.362;6.588;2023-02-20T09:22:06;50.12;42.61;68.16;;
76767;Laerm;65707;52.362;6.588;2023-02-20T09:24:33;54.24;43.26;73.69;;
76767;Laerm;65707;52.362;6.588;2023-02-20T09:27:01;50.40;42.21;73.33;;
76767;Laerm;65707;52.362;6.588;2023-02-20T09:29:29;55.32;42.85;71.34;;
76767;Laerm;65707;52.362;6.588;2023-02-20T09:31:56;55.87;42.92;75.43;;
76767;Laerm;65707;52.362;6.588;2023-02-20T09:34:24;48.64;41.63;65.57;;
76767;Laerm;65707;52.362;6.588;2023-02-20T09:36:51;46.98;41.33;64.18;;
76767;Laerm;65707;52.362;6.588;2023-02-20T09:39:18;56.15;42.42;73.00;;
76767;Laerm;65707;52.362;6.588;2023-02-20T09:42:04;65.55;42.06;81.31;;
76767;Laerm;65707;52.362;6.588;2023-02-20T09:44:43;47.90;41.20;64.28;;
76767;Laerm;65707;52.362;6.588;2023-02-20T09:47:32;46.26;40.24;62.16;;
76767;Laerm;65707;52.362;6.588;2023-02-20T09:50:11;59.96;41.78;81.94;;
76767;Laerm;65707;52.362;6.588;2023-02-20T09:52:43;55.53;42.85;74.42;;
76767;Laerm;65707;52.362;6.588;2023-02-20T09:55:14;53.49;42.91;73.65;;
76767;Laerm;65707;52.362;6.588;2023-02-20T09:57:48;56.44;42.67;74.16;;
76767;Laerm;65707;52.362;6.588;2023-02-20T10:00:26;57.50;42.46;79.51;;
76767;Laerm;65707;52.362;6.588;2023-02-20T10:03:07;51.69;41.72;71.44;;
76767;Laerm;65707;52.362;6.588;2023-02-20T10:05:41;54.94;44.42;73.18;;
76767;Laerm;65707;52.362;6.588;2023-02-20T10:08:14;57.42;44.27;77.79;;
76767;Laerm;65707;52.362;6.588;2023-02-20T10:10:42;62.56;43.36;79.23;;
76767;Laerm;65707;52.362;6.588;2023-02-20T10:13:34;50.84;43.02;65.16;;
76767;Laerm;65707;52.362;6.588;2023-02-20T10:16:16;50.01;42.67;67.77;;
76767;Laerm;65707;52.362;6.588;2023-02-20T10:18:59;59.56;41.06;80.09;;
76767;Laerm;65707;52.362;6.588;2023-02-20T10:21:48;64.19;42.58;79.32;;
76767;Laerm;65707;52.362;6.588;2023-02-20T10:24:33;54.80;42.49;74.75;;
76767;Laerm;65707;52.362;6.588;2023-02-20T10:27:21;52.07;42.74;79.80;;
76767;Laerm;65707;52.362;6.588;2023-02-20T10:29:55;57.01;43.96;78.64;;
76767;Laerm;65707;52.362;6.588;2023-02-20T10:32:29;56.36;43.55;74.11;;
76767;Laerm;65707;52.362;6.588;2023-02-20T10:35:04;50.24;42.37;72.39;;
76767;Laerm;65707;52.362;6.588;2023-02-20T10:37:40;58.02;42.50;77.04;;
76767;Laerm;65707;52.362;6.588;2023-02-20T10:40:19;51.16;43.01;75.02;;
76767;Laerm;65707;52.362;6.588;2023-02-20T10:42:58;61.52;43.40;79.05;;
76767;Laerm;65707;52.362;6.588;2023-02-20T10:45:38;51.45;41.12;73.19;;
76767;Laerm;65707;52.362;6.588;2023-02-20T10:48:10;56.01;42.39;77.96;;
76767;Laerm;65707;52.362;6.588;2023-02-20T10:50:46;59.14;41.95;78.16;;
76767;Laerm;65707;52.362;6.588;2023-02-20T10:53:25;56.34;43.84;78.25;;
76767;Laerm;65707;52.362;6.588;2023-02-20T10:56:04;55.04;41.91;73.37;;
76767;Laerm;65707;52.362;6.588;2023-02-20T10:58:38;49.85;41.78;70.29;;
76767;Laerm;65707;52.362;6.588;2023-02-20T11:01:10;60.38;44.51;83.73;;
76767;Laerm;65707;52.362;6.588;2023-02-20T11:03:46;57.51;44.42;84.36;;
76767;Laerm;65707;52.362;6.588;2023-02-20T11:06:25;58.46;45.49;75.15;;
76767;Laerm;65707;52.362;6.588;2023-02-20T11:08:56;69.00;45.60;82.12;;
76767;Laerm;65707;52.362;6.588;2023-02-20T11:11:29;60.70;42.52;80.14;;
76767;Laerm;65707;52.362;6.588;2023-02-20T11:13:59;57.39;42.99;77.71;;
76767;Laerm;65707;52.362;6.588;2023-02-20T11:16:31;55.97;43.78;79.81;;
76767;Laerm;65707;52.362;6.588;2023-02-20T11:19:11;51.45;42.44;69.64;;
76767;Laerm;65707;52.362;6.588;2023-02-20T11:21:44;62.13;42.30;80.74;;
76767;Laerm;65707;52.362;6.588;2023-02-20T11:24:30;52.93;42.56;70.99;;
76767;Laerm;65707;52.362;6.588;2023-02-20T11:27:05;50.31;42.23;71.93;;
76767;Laerm;65707;52.362;6.588;2023-02-20T11:29:40;52.66;42.42;73.46;;
76767;Laerm;65707;52.362;6.588;2023-02-20T11:32:28;58.23;43.57;75.71;;
76767;Laerm;65707;52.362;6.588;2023-02-20T11:35:32;51.18;40.85;70.03;;
76767;Laerm;65707;52.362;6.588;2023-02-20T11:38:32;53.94;41.89;72.31;;
76767;Laerm;65707;52.362;6.588;2023-02-20T11:41:22;60.83;42.04;79.56;;
76767;Laerm;65707;52.362;6.588;2023-02-20T11:44:19;63.64;42.30;83.41;;
76767;Laerm;65707;52.362;6.588;2023-02-20T11:47:07;68.35;41.76;82.67;;
76767;Laerm;65707;52.362;6.588;2023-02-20T11:49:35;60.03;42.20;78.37;;
76767;Laerm;65707;52.362;6.588;2023-02-20T11:52:14;51.59;42.61;73.28;;
76767;Laerm;65707;52.362;6.588;2023-02-20T11:54:42;56.07;41.60;74.09;;
76767;Laerm;65707;52.362;6.588;2023-02-20T11:57:23;51.26;42.54;71.88;;
76767;Laerm;65707;52.362;6.588;2023-02-20T12:00:09;56.13;42.96;70.89;;
76767;Laerm;65707;52.362;6.588;2023-02-20T12:02:52;56.76;42.30;83.91;;
76767;Laerm;65707;52.362;6.588;2023-02-20T12:05:20;56.05;42.83;79.67;;
76767;Laerm;65707;52.362;6.588;2023-02-20T12:07:57;58.79;43.15;79.23;;
76767;Laerm;65707;52.362;6.588;2023-02-20T12:10:46;63.17;43.20;80.59;;
76767;Laerm;65707;52.362;6.588;2023-02-20T12:13:16;54.49;43.11;74.62;;
76767;Laerm;65707;52.362;6.588;2023-02-20T12:15:51;50.56;43.55;67.06;;
76767;Laerm;65707;52.362;6.588;2023-02-20T12:18:49;62.67;42.64;82.07;;
76767;Laerm;65707;52.362;6.588;2023-02-20T12:21:45;64.54;42.68;80.11;;
76767;Laerm;65707;52.362;6.588;2023-02-20T12:24:58;59.86;44.77;80.81;;
76767;Laerm;65707;52.362;6.588;2023-02-20T12:27:46;55.36;45.35;71.90;;
76767;Laerm;65707;52.362;6.588;2023-02-20T12:30:36;55.00;44.21;71.84;;
76767;Laerm;65707;52.362;6.588;2023-02-20T12:33:33;51.65;41.92;72.86;;
76767;Laerm;65707;52.362;6.588;2023-02-20T12:36:19;49.79;41.63;66.39;;
76767;Laerm;65707;52.362;6.588;2023-02-20T12:38:57;56.52;42.71;83.32;;
76767;Laerm;65707;52.362;6.588;2023-02-20T12:41:48;62.47;43.05;80.46;;
76767;Laerm;65707;52.362;6.588;2023-02-20T12:44:36;49.52;43.60;63.69;;
76767;Laerm;65707;52.362;6.588;2023-02-20T12:47:21;50.62;42.41;67.62;;
76767;Laerm;65707;52.362;6.588;2023-02-20T12:50:09;72.84;44.83;86.98;;
76767;Laerm;65707;52.362;6.588;2023-02-20T12:53:14;55.44;42.90;73.54;;
76767;Laerm;65707;52.362;6.588;2023-02-20T12:55:53;53.30;43.53;78.31;;
76767;Laerm;65707;52.362;6.588;2023-02-20T12:58:46;56.60;42.69;74.03;;
76767;Laerm;65707;52.362;6.588;2023-02-20T13:01:18;55.88;44.61;74.06;;
76767;Laerm;65707;52.362;6.588;2023-02-20T13:04:01;50.34;42.98;64.38;;
76767;Laerm;65707;52.362;6.588;2023-02-20T13:06:37;50.80;43.08;63.62;;
76767;Laerm;65707;52.362;6.588;2023-02-20T13:09:18;56.28;42.81;76.47;;
76767;Laerm;65707;52.362;6.588;2023-02-20T13:11:50;61.81;43.26;79.36;;
76767;Laerm;65707;52.362;6.588;2023-02-20T13:14:38;50.14;42.24;71.98;;
76767;Laerm;65707;52.362;6.588;2023-02-20T13:17:20;67.94;43.86;81.38;;
76767;Laerm;65707;52.362;6.588;2023-02-20T13:19:58;62.11;43.84;80.15;;
76767;Laerm;65707;52.362;6.588;2023-02-20T13:22:26;55.86;44.81;77.89;;
76767;Laerm;65707;52.362;6.588;2023-02-20T13:24:53;57.78;43.74;78.00;;
76767;Laerm;65707;52.362;6.588;2023-02-20T13:27:29;50.86;42.84;69.00;;
76767;Laerm;65707;52.362;6.588;2023-02-20T13:29:59;57.21;44.10;73.08;;
76767;Laerm;65707;52.362;6.588;2023-02-20T13:32:29;52.35;41.87;74.64;;
76767;Laerm;65707;52.362;6.588;2023-02-20T13:35:37;54.91;42.16;72.10;;
76767;Laerm;65707;52.362;6.588;2023-02-20T13:38:13;63.48;43.51;80.52;;
76767;Laerm;65707;52.362;6.588;2023-02-20T13:40:43;61.28;42.23;79.25;;
76767;Laerm;65707;52.362;6.588;2023-02-20T13:43:30;49.24;41.76;69.59;;
76767;Laerm;65707;52.362;6.588;2023-02-20T13:46:16;50.66;43.15;72.83;;
76767;Laerm;65707;52.362;6.588;2023-02-20T13:48:49;60.10;42.31;78.61;;
76767;Laerm;65707;52.362;6.588;2023-02-20T13:51:33;52.37;42.36;74.90;;
76767;Laerm;65707;52.362;6.588;2023-02-20T13:54:23;54.24;43.05;72.39;;
76767;Laerm;65707;52.362;6.588;2023-02-20T13:56:58;55.92;42.12;74.14;;
76767;Laerm;65707;52.362;6.588;2023-02-20T13:59:30;55.03;42.35;72.79;;
76767;Laerm;65707;52.362;6.588;2023-02-20T14:02:16;53.16;41.77;70.00;;
76767;Laerm;65707;52.362;6.588;2023-02-20T14:04:58;57.74;42.05;88.96;;
76767;Laerm;65707;52.362;6.588;2023-02-20T14:07:34;55.98;42.59;78.57;;
76767;Laerm;65707;52.362;6.588;2023-02-20T14:10:13;62.24;43.29;78.55;;
76767;Laerm;65707;52.362;6.588;2023-02-20T14:12:40;56.09;46.09;75.62;;
76767;Laerm;65707;52.362;6.588;2023-02-20T14:15:07;48.30;43.85;63.04;;
76767;Laerm;65707;52.362;6.588;2023-02-20T14:17:34;50.30;42.63;67.40;;
76767;Laerm;65707;52.362;6.588;2023-02-20T14:20:10;61.40;43.40;80.73;;
76767;Laerm;65707;52.362;6.588;2023-02-20T14:22:42;52.02;43.44;60.51;;
76767;Laerm;65707;52.362;6.588;2023-02-20T14:25:23;62.27;45.36;79.77;;
76767;Laerm;65707;52.362;6.588;2023-02-20T14:27:51;63.81;43.25;78.95;;
76767;Laerm;65707;52.362;6.588;2023-02-20T14:30:21;53.37;45.05;72.18;;